Flight Track Log - Related Links

Times and Time Zones

All times are in EDT time to prevent confusion due to time zone crossing. See the CTL17 flight status page for this flight to view local times or setup timezone preferences in your user account.

Time Position Orientation Groundspeed Altitude Reporting Facility
EDT Latitude Longitude Course Direction KTS MPH feet Rate Location/Type
Tue 06:48:43 PM 41.5792 -81.7017 344° North 138 159 2,300  Level Cleveland Center
Tue 06:49:37 PM 41.6083 -81.7244 330° Northwest 147 169 2,900 661 Climbing Cleveland Center
Tue 06:50:50 PM 41.6369 -81.7806 304° West 158 182 3,700 672 Climbing Cleveland Center
Tue 06:51:33 PM 41.6447 -81.8225 284° West 157 181 4,200 577 Climbing Cleveland Center
Tue 06:52:34 PM 41.6608 -81.8783 291° West 154 177 4,700 541 Climbing Cleveland Center
Tue 06:53:46 PM 41.6747 -81.9425 286° West 154 177 5,400 541 Climbing Cleveland Center
Tue 06:54:47 PM 41.6886 -81.9956 289° West 152 175 5,900 295 Climbing Cleveland Center
Tue 06:55:48 PM 41.7044 -82.0544 290° West 162 186 6,000 50 Climbing Cleveland Center
Tue 06:56:48 PM 41.7164 -82.1131 285° West 169 194 6,000  Level Cleveland Center
Tue 06:57:49 PM 41.7322 -82.1719 290° West 166 191 6,000  Level Cleveland Center
Tue 06:58:56 PM 41.7478 -82.2364 288° West 164 189 6,000  Level Cleveland Center
Tue 06:59:50 PM 41.7597 -82.2894 287° West 164 189 6,000  Level Cleveland Center
Tue 07:00:51 PM 41.7714 -82.3456 286° West 164 189 6,000  Level Cleveland Center
Tue 07:01:52 PM 41.7869 -82.4072 289° West 164 189 6,000  Level Cleveland Center
Tue 07:02:58 PM 41.8069 -82.4692 293° West 164 189 6,000  Level Cleveland Center
Tue 07:04:23 PM 41.8264 -82.5506 288° West 162 186 6,000  Level Cleveland Center
Tue 07:05:24 PM 41.8419 -82.6094 290° West 162 186 6,000  Level Cleveland Center
Tue 07:06:25 PM 41.8683 -82.6550 308° West 161 185 6,000  Level Cleveland Center
Tue 07:07:26 PM 41.9075 -82.6814 333° Northwest 161 185 6,000  Level Cleveland Center
Tue 07:08:27 PM 41.9486 -82.7106 332° Northwest 163 188 6,000  Level Cleveland Center
Tue 07:09:28 PM 41.9875 -82.7397 331° Northwest 160 184 6,000  Level Cleveland Center
Tue 07:10:35 PM 42.0308 -82.7719 331° Northwest 162 186 6,000  Level Cleveland Center
Tue 07:11:30 PM 42.0700 -82.7986 333° Northwest 164 189 6,000  Level Cleveland Center
Tue 07:12:30 PM 42.1089 -82.8250 333° Northwest 161 185 6,000  Level Cleveland Center
Tue 07:13:37 PM 42.1519 -82.8603 329° Northwest 155 178 6,000 -47 Level Cleveland Center
Tue 07:14:38 PM 42.1911 -82.8869 333° Northwest 158 182 5,900  Descending Cleveland Center
Tue 07:15:39 PM 42.2303 -82.9133 333° Northwest 160 184 6,000 -344 Climbing Cleveland Center
Tue 07:16:40 PM 42.2711 -82.9486 327° Northwest 178 205 5,200 -689 Descending Cleveland Center
Tue 07:17:41 PM 42.3206 -82.9786 336° Northwest 182 209 4,600 -516 Descending Cleveland Center
Tue 07:18:48 PM 42.3678 -83.0169 329° Northwest 179 206 4,100 -344 Descending Cleveland Center
Tue 07:19:43 PM 42.4089 -83.0439 334° Northwest 162 186 3,900 -52 Descending Cleveland Center
Tue 07:20:44 PM 42.4458 -83.0706 332° Northwest 163 188 4,000  Climbing Cleveland Center
Tue 07:21:45 PM 42.4867 -83.1031 330° Northwest 160 184 3,900 -49 Descending Cleveland Center
Tue 07:22:46 PM 42.5278 -83.1358 330° Northwest 165 190 3,900 49 Level Cleveland Center
Tue 07:23:47 PM 42.5475 -83.1789 302° West 169 194 4,000 -295 Climbing Cleveland Center
Tue 07:24:48 PM 42.5628 -83.2417 288° West 180 207 3,300 -639 Descending Cleveland Center
Tue 07:25:49 PM 42.5908 -83.2992 304° West 178 205 2,700 -626 Descending Cleveland Center
Tue 07:26:43 PM 42.6103 -83.3481 298° West 174 200 2,100 -417 Descending Cleveland Center
Tue 07:27:44 PM 42.6342 -83.4025 301° West 159 183 1,900 -234 Descending Cleveland Center
Tue 07:28:51 PM 42.6472 -83.4597 287° West 121 139 1,600 -269 Descending Cleveland Center
Tue 07:30:00 PM 42.6500 -83.4167 304° West  Level FlightAware Approximate
Tue 07:37:00 PM 42.6656 -83.4205 304° West  Level Estimated
Tue 07:38:00 PM 42.6656 -83.4205 304° West  Level Estimated

Login

Don't have an account? Register now (free) for customized features, flight alerts, and more!